Pilot L239 — OJ9461 — position and weather

sailwx.info

Track history (hours):
 
Tides and Currents Weather Stations Pressure Air Temp Water Temp Dewpoint Dewpoint Depression Visibility Wind Speed Wind Dir Waves Ship Positions

Pilot L239

Last reported at 2016-Dec-09 07:33 UTC. Time now 2016-Dec-10 07:03 UTC.
Position N 60°13' E 025°11'.

Length 15 m.

Type: Pilot. MMSI: 230035440.

Date/timePositionNaut miles runAvg speedWind from/ knotsBaromVisibWave heightAir tempDewpointWater temp
2016-Dec-09 07:33N 60°13' E 025°11'9 9.0
2016-Dec-09 06:33N 60°06' E 024°58'0 0.0
2016-Dec-09 05:33N 60°06' E 024°58'2 1.5
2016-Dec-09 04:33N 60°08' E 024°59'2 1.5
2016-Dec-09 03:33N 60°06' E 024°58'0 0.0
2016-Dec-09 02:33N 60°06' E 024°58'0 0.0
2016-Dec-09 01:33N 60°06' E 024°58'0 0.0
2016-Dec-09 00:33N 60°06' E 024°58'0 0.0
2016-Dec-08 23:33N 60°06' E 024°58'0 0.0
2016-Dec-08 22:33N 60°06' E 024°58'0 0.0
2016-Dec-08 21:33N 60°06' E 024°58'0 0.0
2016-Dec-08 20:34N 60°06' E 024°58'1 1.4
2016-Dec-08 19:33N 60°07' E 025°01'1 1.5
2016-Dec-08 18:34N 60°06' E 024°58'0 0.0
2016-Dec-08 17:34N 60°06' E 024°58'0 0.0
2016-Dec-08 16:34N 60°06' E 024°58'0 0.0
2016-Dec-08 15:34N 60°06' E 024°58'0 0.0
2016-Dec-08 14:33N 60°06' E 024°58'0 0.0
2016-Dec-08 13:34N 60°06' E 024°58'4 3.9
2016-Dec-08 12:34N 60°10' E 024°58'4 1.6
2016-Dec-08 10:04N 60°06' E 024°58'4 1.0
2016-Dec-08 06:33N 60°10' E 024°59'  
2016-Dec-05 07:29N 60°06' E 024°58'0 0.0
2016-Dec-05 06:33N 60°06' E 024°58'0 0.0
2016-Dec-05 05:33N 60°06' E 024°58'1 0.6
2016-Dec-05 04:33N 60°07' E 024°59'1 0.6
2016-Dec-05 03:33N 60°06' E 024°58'4 4.4
2016-Dec-05 02:34N 60°06' E 025°07'4 4.4
2016-Dec-05 01:33N 60°06' E 024°58'0 0.0
2016-Dec-05 00:33N 60°06' E 024°58'0 0.0
2016-Dec-04 23:33N 60°06' E 024°58'0 0.0
2016-Dec-04 22:33N 60°06' E 024°58'0 0.0
2016-Dec-04 21:33N 60°06' E 024°58'0 0.0
2016-Dec-04 20:33N 60°06' E 024°58'0 0.0
2016-Dec-04 19:33N 60°06' E 024°58'0 0.0
2016-Dec-04 18:33N 60°06' E 024°58'0 0.0
2016-Dec-04 17:33N 60°06' E 024°58'0 0.0
2016-Dec-04 16:33N 60°06' E 024°58'0 0.0
2016-Dec-04 15:33N 60°06' E 024°58'0 0.0
2016-Dec-04 14:33N 60°06' E 024°58'0 0.0
2016-Dec-04 13:34N 60°06' E 024°58'0 0.0
2016-Dec-04 12:33N 60°06' E 024°58'0 0.0
2016-Dec-04 11:33N 60°06' E 024°58'0 0.0
2016-Dec-04 10:34N 60°06' E 024°58'0 0.0
2016-Dec-04 09:34N 60°06' E 024°58'0 0.0
2016-Dec-04 08:33N 60°06' E 024°58'0 0.0
2016-Dec-04 07:33N 60°06' E 024°58'0 0.0
2016-Dec-04 06:34N 60°06' E 024°58'3 3.2
2016-Dec-04 05:33N 60°09' E 024°55'3 3.2
2016-Dec-04 04:34N 60°06' E 024°58'0 0.0
2016-Dec-04 03:34N 60°06' E 024°58'0 0.0
2016-Dec-04 02:33N 60°06' E 024°58'6 5.7
2016-Dec-04 01:34N 60°05' E 025°10'6 5.7
2016-Dec-04 00:33N 60°06' E 024°58'0 0.0
2016-Dec-03 23:33N 60°06' E 024°58'0 0.0
2016-Dec-03 22:33N 60°06' E 024°58'0 0.0
2016-Dec-03 21:33N 60°06' E 024°58'0 0.0
2016-Dec-03 20:33N 60°06' E 024°58'0 0.0
2016-Dec-03 19:33N 60°06' E 024°58'0 0.0
2016-Dec-03 18:33N 60°06' E 024°58'0 0.0
2016-Dec-03 17:33N 60°06' E 024°58'2 2.3
2016-Dec-03 16:33N 60°09' E 024°60'2 1.9
2016-Dec-03 15:33N 60°10' E 024°58'4 3.9
2016-Dec-03 14:33N 60°06' E 024°58'2 1.8
2016-Dec-03 13:33N 60°05' E 024°58'2 1.8
2016-Dec-03 12:33N 60°06' E 024°58'2 1.5
2016-Dec-03 11:33N 60°07' E 025°01'2 1.5
2016-Dec-03 10:33N 60°06' E 024°58'0 0.0
2016-Dec-03 09:33N 60°06' E 024°58'5 5.3
2016-Dec-03 08:33N 60°05' E 025°09'5 5.3
2016-Dec-03 07:33N 60°06' E 024°58'0 0.0
2016-Dec-03 06:33N 60°06' E 024°58'0 0.0
2016-Dec-03 05:33N 60°06' E 024°58'0 0.0
2016-Dec-03 04:33N 60°06' E 024°58'0 0.0
2016-Dec-03 03:33N 60°06' E 024°58'0 0.0
2016-Dec-03 02:33N 60°06' E 024°58'0 0.0
2016-Dec-03 01:33N 60°06' E 024°58'0 0.0
2016-Dec-03 00:33N 60°06' E 024°58'0 0.0
2016-Dec-02 23:33N 60°06' E 024°58'0 0.0
2016-Dec-02 22:33N 60°06' E 024°58'0 0.0
2016-Dec-02 21:33N 60°06' E 024°58'0 0.0
2016-Dec-02 20:33N 60°06' E 024°58'6 6.2
2016-Dec-02 19:33N 60°05' E 025°11'6 6.2
2016-Dec-02 18:33N 60°06' E 024°58'0 0.0
2016-Dec-02 17:33N 60°06' E 024°58'  
Track history (hours):
 
Tides and Currents Weather Stations Pressure Air Temp Water Temp Dewpoint Dewpoint Depression Visibility Wind Speed Wind Dir Waves Ship Positions

Pilot L239

Last reported at 2016-Dec-09 07:33 UTC. Time now 2016-Dec-10 07:03 UTC.
Position N 60°13' E 025°11'.

Length 15 m.

Type: Pilot. MMSI: 230035440.

Date/timePositionNaut miles runAvg speedWind from/ knotsBaromVisibWave heightAir tempDewpointWater temp
2016-Dec-09 07:33N 60°13' E 025°11'9 9.0
2016-Dec-09 06:33N 60°06' E 024°58'0 0.0
2016-Dec-09 05:33N 60°06' E 024°58'2 1.5
2016-Dec-09 04:33N 60°08' E 024°59'2 1.5
2016-Dec-09 03:33N 60°06' E 024°58'0 0.0
2016-Dec-09 02:33N 60°06' E 024°58'0 0.0
2016-Dec-09 01:33N 60°06' E 024°58'0 0.0
2016-Dec-09 00:33N 60°06' E 024°58'0 0.0
2016-Dec-08 23:33N 60°06' E 024°58'0 0.0
2016-Dec-08 22:33N 60°06' E 024°58'0 0.0
2016-Dec-08 21:33N 60°06' E 024°58'0 0.0
2016-Dec-08 20:34N 60°06' E 024°58'1 1.4
2016-Dec-08 19:33N 60°07' E 025°01'1 1.5
2016-Dec-08 18:34N 60°06' E 024°58'0 0.0
2016-Dec-08 17:34N 60°06' E 024°58'0 0.0
2016-Dec-08 16:34N 60°06' E 024°58'0 0.0
2016-Dec-08 15:34N 60°06' E 024°58'0 0.0
2016-Dec-08 14:33N 60°06' E 024°58'0 0.0
2016-Dec-08 13:34N 60°06' E 024°58'4 3.9
2016-Dec-08 12:34N 60°10' E 024°58'4 1.6
2016-Dec-08 10:04N 60°06' E 024°58'4 1.0
2016-Dec-08 06:33N 60°10' E 024°59'  
2016-Dec-05 07:29N 60°06' E 024°58'0 0.0
2016-Dec-05 06:33N 60°06' E 024°58'0 0.0
2016-Dec-05 05:33N 60°06' E 024°58'1 0.6
2016-Dec-05 04:33N 60°07' E 024°59'1 0.6
2016-Dec-05 03:33N 60°06' E 024°58'4 4.4
2016-Dec-05 02:34N 60°06' E 025°07'4 4.4
2016-Dec-05 01:33N 60°06' E 024°58'0 0.0
2016-Dec-05 00:33N 60°06' E 024°58'0 0.0
2016-Dec-04 23:33N 60°06' E 024°58'0 0.0
2016-Dec-04 22:33N 60°06' E 024°58'0 0.0
2016-Dec-04 21:33N 60°06' E 024°58'0 0.0
2016-Dec-04 20:33N 60°06' E 024°58'0 0.0
2016-Dec-04 19:33N 60°06' E 024°58'0 0.0
2016-Dec-04 18:33N 60°06' E 024°58'0 0.0
2016-Dec-04 17:33N 60°06' E 024°58'0 0.0
2016-Dec-04 16:33N 60°06' E 024°58'0 0.0
2016-Dec-04 15:33N 60°06' E 024°58'0 0.0
2016-Dec-04 14:33N 60°06' E 024°58'0 0.0
2016-Dec-04 13:34N 60°06' E 024°58'0 0.0
2016-Dec-04 12:33N 60°06' E 024°58'0 0.0
2016-Dec-04 11:33N 60°06' E 024°58'0 0.0
2016-Dec-04 10:34N 60°06' E 024°58'0 0.0
2016-Dec-04 09:34N 60°06' E 024°58'0 0.0
2016-Dec-04 08:33N 60°06' E 024°58'0 0.0
2016-Dec-04 07:33N 60°06' E 024°58'0 0.0
2016-Dec-04 06:34N 60°06' E 024°58'3 3.2
2016-Dec-04 05:33N 60°09' E 024°55'3 3.2
2016-Dec-04 04:34N 60°06' E 024°58'0 0.0
2016-Dec-04 03:34N 60°06' E 024°58'0 0.0
2016-Dec-04 02:33N 60°06' E 024°58'6 5.7
2016-Dec-04 01:34N 60°05' E 025°10'6 5.7
2016-Dec-04 00:33N 60°06' E 024°58'0 0.0
2016-Dec-03 23:33N 60°06' E 024°58'0 0.0
2016-Dec-03 22:33N 60°06' E 024°58'0 0.0
2016-Dec-03 21:33N 60°06' E 024°58'0 0.0
2016-Dec-03 20:33N 60°06' E 024°58'0 0.0
2016-Dec-03 19:33N 60°06' E 024°58'0 0.0
2016-Dec-03 18:33N 60°06' E 024°58'0 0.0
2016-Dec-03 17:33N 60°06' E 024°58'2 2.3
2016-Dec-03 16:33N 60°09' E 024°60'2 1.9
2016-Dec-03 15:33N 60°10' E 024°58'4 3.9
2016-Dec-03 14:33N 60°06' E 024°58'2 1.8
2016-Dec-03 13:33N 60°05' E 024°58'2 1.8
2016-Dec-03 12:33N 60°06' E 024°58'2 1.5
2016-Dec-03 11:33N 60°07' E 025°01'2 1.5
2016-Dec-03 10:33N 60°06' E 024°58'0 0.0
2016-Dec-03 09:33N 60°06' E 024°58'5 5.3
2016-Dec-03 08:33N 60°05' E 025°09'5 5.3
2016-Dec-03 07:33N 60°06' E 024°58'0 0.0
2016-Dec-03 06:33N 60°06' E 024°58'0 0.0
2016-Dec-03 05:33N 60°06' E 024°58'0 0.0
2016-Dec-03 04:33N 60°06' E 024°58'0 0.0
2016-Dec-03 03:33N 60°06' E 024°58'0 0.0
2016-Dec-03 02:33N 60°06' E 024°58'0 0.0
2016-Dec-03 01:33N 60°06' E 024°58'0 0.0
2016-Dec-03 00:33N 60°06' E 024°58'0 0.0
2016-Dec-02 23:33N 60°06' E 024°58'0 0.0
2016-Dec-02 22:33N 60°06' E 024°58'0 0.0
2016-Dec-02 21:33N 60°06' E 024°58'0 0.0
2016-Dec-02 20:33N 60°06' E 024°58'6 6.2
2016-Dec-02 19:33N 60°05' E 025°11'6 6.2
2016-Dec-02 18:33N 60°06' E 024°58'0 0.0
2016-Dec-02 17:33N 60°06' E 024°58'  

Dump ship's entire track history